Overview Statistics Trail Chart Weather Telemetry Raw packets
 

This is the latest recevied weather packets stored in our database for station/object EA4HRG-10. If no packets are shown the sender has not sent any weather packets the latest 10 day(s).

<< 23 24 25 26 27 28 29 >>
Time Temp. Humidity Pressure Rain* Wind** Luminosity Snow
1788081937 30° C 21% 1014 hPa - - - -
1788081037 31.11° C 23% 1013.6 hPa - - - -
1788080137 30.56° C 23% 1013.9 hPa - - - -
1788079237 26.67° C 28% 1015.5 hPa - - - -
1788078337 17.22° C 45% 1019.2 hPa - - - -
1788077437 15.56° C 47% 1019.8 hPa - - - -
1788076537 14.44° C 48% 1020.4 hPa - - - -
1788075637 13.33° C 50% 1020.9 hPa - - - -
1788074737 11.67° C 54% 1021.5 hPa - - - -
1788073837 11.11° C 58% 1022 hPa - - - -
1788072937 10° C 59% 1022.3 hPa - - - -
1788072037 9.44° C 60% 1022.6 hPa - - - -
1788071137 8.33° C 63% 1023 hPa - - - -
1788070237 8.33° C 65% 1023 hPa - - - -
1788069337 8.33° C 65% 1023 hPa - - - -
1788068437 7.78° C 65% 1023 hPa - - - -
1788067537 8.33° C 63% 1022.8 hPa - - - -
1788066637 8.33° C 64% 1022.8 hPa - - - -
1788065737 8.33° C 63% 1022.5 hPa - - - -
1788064837 8.89° C 62% 1022.4 hPa - - - -
1788063937 8.89° C 62% 1022.4 hPa - - - -
1788063037 8.89° C 60% 1022.2 hPa - - - -
1788062137 8.89° C 61% 1022.1 hPa - - - -
1788061237 9.44° C 60% 1022 hPa - - - -
1788060337 9.44° C 59% 1022 hPa - - - -

* Rain since midnight (hover to see other rain measurements)
** Current wind speed in m/s (hover to see current wind gust speed)